Pagrindinis puslapis
METAR-TAF:

METAR-TAF

Oro uostai :

Nome, Aliaska, Jungtinės Amerikos Valstijos

platuma: 64-30-43N, ilguma: 165-26-42W, Aukštis: 11 m

Dabartinis oras

Ataskaita buvo paskelbta 35 minutes, ne 02:53 UTC
Vėjas 8 kt iš Rytų/Šiaurės Rytų
Temperatūra -19°C
Drėgmė 77%
Slėgis 1019 hPa
Matomumas: 16.1 km
Giedras dangus

METAR: PAOM 290253Z 07008KT 10SM CLR M19/M22 A3008 RMK AO2 SLP186 T11891217 58012

Laikas: 18:28 (03:28 UTC)

Prognozė

Ataskaita buvo paskelbta 3 valandos ir 56 minutes, ne 23:32 UTC
Prognozė galioja nuo 29 metu 00 UTC su 29 metu 24 UTC
Vėjas 6 kt nuo kintamojo kryptimis
Matomumas: 10 km
Giedras dangus

TAF: PAOM 282332Z 2900/2924 VRB06KT P6SM SKC

Orai ataskaitas ir orų prognozės (METAR, TAF).

turimą stotys yra geltonos ir raudonos taškus žemėlapyje.

Perkelti pele per norėdami pamatyti stoties vardą.

Tada spustelėkite, norėdami matyti oro stebėjimo ir prognozės.

Norėdami pakeisti žemėlapį: spustelėkite ant žalios mygtukų su juodo kryžiaus žemyn,; žalią mygtuką su brūkšneliu, jei norite nutolinti; arba žalių rodyklių gretimoms žemėlapius.


METAR-TAF: